EJM81 KSBP-KVNY
Flight info
| Callsign | EJM81 |
|---|---|
| Flight time | 0h 31m |
| Altitude | 19000 |
| Route | PRPLE IVINS2 |
| Aircraft | C750/M-SBDE3FGHRWXY/S |
Departure
| Time | 2026-04-30 20:15 |
|---|---|
| Airport | San Luis County Regional Airport (KSBP) |
Arrival
| Time | 2026-04-30 20:47 |
|---|---|
| Airport | Van Nuys Airport (KVNY) |
| Time | Latitude | Longitude | Altitude | Speed | Heading |
|---|---|---|---|---|---|
| 2026-04-30 20:13 | 35.23608 | -120.63624 | 180 ft | 0 kts | 205° |
| 2026-04-30 20:13 | 35.23601 | -120.63627 | 180 ft | 6 kts | 205° |
| 2026-04-30 20:14 | 35.23539 | -120.63571 | 180 ft | 17 kts | 124° |
| 2026-04-30 20:14 | 35.23472 | -120.63452 | 180 ft | 17 kts | 125° |
| 2026-04-30 20:14 | 35.23404 | -120.63335 | 180 ft | 17 kts | 125° |
| 2026-04-30 20:14 | 35.23337 | -120.63238 | 181 ft | 10 kts | 176° |
| 2026-04-30 20:15 | 35.23276 | -120.63286 | 181 ft | 10 kts | 234° |
| 2026-04-30 20:15 | 35.23349 | -120.63431 | 180 ft | 65 kts | 304° |
| 2026-04-30 20:15 | 35.23775 | -120.64186 | 434 ft | 126 kts | 304° |
| 2026-04-30 20:15 | 35.24278 | -120.65139 | 1109 ft | 139 kts | 304° |
| 2026-04-30 20:16 | 35.24846 | -120.66159 | 1963 ft | 151 kts | 304° |
| 2026-04-30 20:16 | 35.25484 | -120.67286 | 2713 ft | 172 kts | 306° |
| 2026-04-30 20:16 | 35.26222 | -120.68566 | 3321 ft | 196 kts | 308° |
| 2026-04-30 20:16 | 35.27058 | -120.70020 | 3856 ft | 222 kts | 307° |
| 2026-04-30 20:17 | 35.27997 | -120.71665 | 4441 ft | 251 kts | 307° |
| 2026-04-30 20:17 | 35.29045 | -120.73502 | 5263 ft | 270 kts | 307° |
| 2026-04-30 20:17 | 35.30132 | -120.75411 | 6373 ft | 278 kts | 307° |
| 2026-04-30 20:17 | 35.30876 | -120.76716 | 6997 ft | 285 kts | 307° |
| 2026-04-30 20:18 | 35.32013 | -120.78712 | 8228 ft | 287 kts | 306° |
| 2026-04-30 20:18 | 35.33164 | -120.80729 | 9482 ft | 291 kts | 306° |
| 2026-04-30 20:18 | 35.34312 | -120.82795 | 10463 ft | 300 kts | 303° |
| 2026-04-30 20:18 | 35.35015 | -120.85330 | 10638 ft | 335 kts | 277° |
| 2026-04-30 20:19 | 35.34657 | -120.88267 | 10793 ft | 364 kts | 248° |
| 2026-04-30 20:19 | 35.33138 | -120.90726 | 11713 ft | 365 kts | 221° |
| 2026-04-30 20:19 | 35.30881 | -120.92173 | 12475 ft | 374 kts | 196° |
| 2026-04-30 20:19 | 35.28282 | -120.92318 | 13244 ft | 379 kts | 171° |
| 2026-04-30 20:20 | 35.25836 | -120.91109 | 13971 ft | 383 kts | 145° |
| 2026-04-30 20:20 | 35.24029 | -120.88794 | 14638 ft | 383 kts | 120° |
| 2026-04-30 20:20 | 35.23151 | -120.85743 | 15319 ft | 382 kts | 96° |
| 2026-04-30 20:20 | 35.23221 | -120.82518 | 16093 ft | 380 kts | 81° |
| 2026-04-30 20:21 | 35.23591 | -120.79300 | 16882 ft | 384 kts | 79° |
| 2026-04-30 20:21 | 35.23850 | -120.76025 | 17540 ft | 394 kts | 87° |
| 2026-04-30 20:21 | 35.23617 | -120.72661 | 18354 ft | 398 kts | 94° |
| 2026-04-30 20:21 | 35.23154 | -120.69294 | 18954 ft | 409 kts | 98° |
| 2026-04-30 20:22 | 35.22290 | -120.65867 | 18988 ft | 436 kts | 108° |
| 2026-04-30 20:22 | 35.21022 | -120.62384 | 18997 ft | 459 kts | 113° |
| 2026-04-30 20:22 | 35.19609 | -120.58825 | 19007 ft | 468 kts | 113° |
| 2026-04-30 20:22 | 35.18312 | -120.55150 | 19006 ft | 471 kts | 109° |
| 2026-04-30 20:23 | 35.17204 | -120.51379 | 19010 ft | 472 kts | 107° |
| 2026-04-30 20:23 | 35.16067 | -120.47596 | 19009 ft | 474 kts | 109° |
| 2026-04-30 20:23 | 35.14785 | -120.43881 | 19001 ft | 474 kts | 111° |
| 2026-04-30 20:23 | 35.13483 | -120.40162 | 19007 ft | 475 kts | 110° |
| 2026-04-30 20:24 | 35.12280 | -120.36415 | 19010 ft | 475 kts | 108° |
| 2026-04-30 20:24 | 35.11099 | -120.32638 | 19007 ft | 475 kts | 109° |
| 2026-04-30 20:24 | 35.09860 | -120.28899 | 19010 ft | 475 kts | 110° |
| 2026-04-30 20:24 | 35.08588 | -120.25172 | 18993 ft | 474 kts | 110° |
| 2026-04-30 20:25 | 35.06143 | -120.17690 | 19005 ft | 474 kts | 109° |
| 2026-04-30 20:25 | 35.04930 | -120.14001 | 19002 ft | 474 kts | 110° |
| 2026-04-30 20:26 | 35.02432 | -120.06553 | 18999 ft | 475 kts | 110° |
| 2026-04-30 20:26 | 34.99966 | -119.99076 | 18986 ft | 475 kts | 110° |
| 2026-04-30 20:26 | 34.98718 | -119.95346 | 18987 ft | 475 kts | 110° |
| 2026-04-30 20:27 | 34.96224 | -119.87886 | 18990 ft | 475 kts | 110° |
| 2026-04-30 20:27 | 34.93738 | -119.80439 | 18986 ft | 474 kts | 110° |
| 2026-04-30 20:28 | 34.91257 | -119.73054 | 18981 ft | 452 kts | 110° |
| 2026-04-30 20:28 | 34.89074 | -119.66570 | 18970 ft | 385 kts | 109° |
| 2026-04-30 20:29 | 34.86772 | -119.60726 | 18912 ft | 387 kts | 125° |
| 2026-04-30 20:30 | 34.81612 | -119.53099 | 18988 ft | 389 kts | 126° |
| 2026-04-30 20:30 | 34.76468 | -119.45441 | 18696 ft | 390 kts | 127° |
| 2026-04-30 20:31 | 34.71546 | -119.37856 | 17318 ft | 376 kts | 126° |
| 2026-04-30 20:32 | 34.66707 | -119.30502 | 15986 ft | 367 kts | 126° |
| 2026-04-30 20:32 | 34.63722 | -119.25683 | 15125 ft | 345 kts | 119° |
| 2026-04-30 20:33 | 34.62513 | -119.23191 | 14750 ft | 342 kts | 118° |
| 2026-04-30 20:33 | 34.60070 | -119.18234 | 13934 ft | 340 kts | 119° |
| 2026-04-30 20:33 | 34.58856 | -119.15793 | 13517 ft | 336 kts | 119° |
| 2026-04-30 20:34 | 34.56645 | -119.10899 | 12689 ft | 322 kts | 109° |
| 2026-04-30 20:34 | 34.55156 | -119.06060 | 11974 ft | 300 kts | 113° |
| 2026-04-30 20:35 | 34.53814 | -119.04131 | 11578 ft | 301 kts | 139° |
| 2026-04-30 20:35 | 34.52099 | -119.02695 | 11349 ft | 299 kts | 144° |
| 2026-04-30 20:35 | 34.48643 | -118.99921 | 10686 ft | 299 kts | 143° |
| 2026-04-30 20:36 | 34.46931 | -118.98507 | 10336 ft | 296 kts | 143° |
| 2026-04-30 20:36 | 34.45232 | -118.97112 | 9974 ft | 293 kts | 144° |
| 2026-04-30 20:36 | 34.41877 | -118.94400 | 9270 ft | 288 kts | 144° |
| 2026-04-30 20:37 | 34.40210 | -118.93060 | 8934 ft | 286 kts | 144° |
| 2026-04-30 20:37 | 34.38759 | -118.91464 | 8511 ft | 281 kts | 124° |
| 2026-04-30 20:37 | 34.38004 | -118.89331 | 8207 ft | 275 kts | 101° |
| 2026-04-30 20:37 | 34.38012 | -118.87039 | 7896 ft | 272 kts | 78° |
| 2026-04-30 20:38 | 34.38490 | -118.84823 | 7638 ft | 271 kts | 73° |
| 2026-04-30 20:38 | 34.38992 | -118.82624 | 7323 ft | 271 kts | 74° |
| 2026-04-30 20:38 | 34.39485 | -118.80426 | 7023 ft | 268 kts | 73° |
| 2026-04-30 20:39 | 34.40771 | -118.76243 | 7020 ft | 267 kts | 68° |
| 2026-04-30 20:39 | 34.41405 | -118.74134 | 7017 ft | 267 kts | 70° |
| 2026-04-30 20:39 | 34.42021 | -118.71996 | 7008 ft | 268 kts | 70° |
| 2026-04-30 20:40 | 34.43275 | -118.67754 | 6992 ft | 270 kts | 69° |
| 2026-04-30 20:40 | 34.43909 | -118.65616 | 7004 ft | 271 kts | 70° |
| 2026-04-30 20:40 | 34.44542 | -118.63467 | 7012 ft | 271 kts | 70° |
| 2026-04-30 20:41 | 34.45807 | -118.59173 | 7010 ft | 271 kts | 69° |
| 2026-04-30 20:41 | 34.46338 | -118.56987 | 6974 ft | 273 kts | 79° |
| 2026-04-30 20:41 | 34.46144 | -118.54712 | 6974 ft | 274 kts | 104° |
| 2026-04-30 20:41 | 34.45173 | -118.52716 | 6977 ft | 280 kts | 130° |
| 2026-04-30 20:42 | 34.43553 | -118.51391 | 6984 ft | 286 kts | 155° |
| 2026-04-30 20:42 | 34.41595 | -118.50899 | 7024 ft | 290 kts | 173° |
| 2026-04-30 20:42 | 34.37557 | -118.50659 | 5990 ft | 283 kts | 174° |
| 2026-04-30 20:43 | 34.35667 | -118.50445 | 5059 ft | 254 kts | 173° |
| 2026-04-30 20:43 | 34.34000 | -118.50264 | 4149 ft | 228 kts | 175° |
| 2026-04-30 20:43 | 34.32525 | -118.50120 | 3392 ft | 222 kts | 176° |
| 2026-04-30 20:44 | 34.29828 | -118.49868 | 2517 ft | 160 kts | 177° |
| 2026-04-30 20:44 | 34.28832 | -118.49777 | 2427 ft | 130 kts | 177° |
| 2026-04-30 20:44 | 34.27130 | -118.49617 | 2101 ft | 121 kts | 177° |
| 2026-04-30 20:45 | 34.25444 | -118.49457 | 1738 ft | 122 kts | 176° |
| 2026-04-30 20:45 | 34.24593 | -118.49377 | 1542 ft | 123 kts | 175° |
| 2026-04-30 20:45 | 34.23744 | -118.49296 | 1353 ft | 122 kts | 174° |
| 2026-04-30 20:46 | 34.21237 | -118.49064 | 804 ft | 116 kts | 173° |
| 2026-04-30 20:46 | 34.20526 | -118.48995 | 774 ft | 83 kts | 178° |
| 2026-04-30 20:47 | 34.20125 | -118.49031 | 758 ft | 14 kts | 315° |
| 2026-04-30 20:47 | 34.20207 | -118.49062 | 759 ft | 12 kts | 346° |
| 2026-04-30 20:48 | 34.20434 | -118.49104 | 771 ft | 21 kts | 355° |
| 2026-04-30 20:48 | 34.20590 | -118.49119 | 777 ft | 25 kts | 355° |
| 2026-04-30 20:48 | 34.20781 | -118.49136 | 785 ft | 29 kts | 355° |
| 2026-04-30 20:48 | 34.21004 | -118.49158 | 788 ft | 36 kts | 356° |
| 2026-04-30 20:49 | 34.21264 | -118.49182 | 793 ft | 35 kts | 355° |
| 2026-04-30 20:49 | 34.21471 | -118.49203 | 792 ft | 24 kts | 354° |
| 2026-04-30 20:49 | 34.21613 | -118.49224 | 798 ft | 18 kts | 356° |
| 2026-04-30 20:50 | 34.21834 | -118.49237 | 804 ft | 14 kts | 355° |
| 2026-04-30 20:50 | 34.21885 | -118.49296 | 808 ft | 9 kts | 273° |
| 2026-04-30 20:50 | 34.21917 | -118.49338 | 810 ft | 6 kts | 345° |
| 2026-04-30 20:50 | 34.21944 | -118.49317 | 811 ft | 6 kts | 86° |
| 2026-04-30 20:51 | 34.21945 | -118.49298 | 810 ft | 0 kts | 84° |